Time;durP1;ratioP1;P1;durP2;ratioP2;P2;SDS_P1;SDS_P2;PMS_P1;PMS_P2;Temp;Humidity;BMP_temperature;BMP_pressure;BME280_temperature;BME280_humidity;BME280_pressure;Samples;Min_cycle;Max_cycle;Signal;HPM_P1;HPM_P2
2021/10/15 00:00:35;;;;;;;11.77;7.88;;;10.10;68.50;;;;;;4996324;28;20034;-50
2021/10/15 00:03:01;;;;;;;11.68;8.57;;;10.10;68.50;;;;;;4996130;28;20026;-51
2021/10/15 00:05:28;;;;;;;11.07;8.80;;;10.10;68.70;;;;;;4996285;28;20045;-51
2021/10/15 00:07:54;;;;;;;11.10;8.23;;;10.10;68.70;;;;;;4995974;28;20018;-52
2021/10/15 00:10:20;;;;;;;13.10;9.45;;;10.00;68.60;;;;;;4995562;28;20038;-55
2021/10/15 00:12:46;;;;;;;12.90;9.15;;;10.00;68.80;;;;;;4995956;28;20031;-51
2021/10/15 00:15:12;;;;;;;12.48;8.60;;;10.00;68.60;;;;;;4996163;28;20072;-53
2021/10/15 00:17:37;;;;;;;12.57;9.50;;;10.00;68.80;;;;;;4996266;28;20030;-51
2021/10/15 00:20:04;;;;;;;13.25;9.43;;;9.90;68.90;;;;;;4995856;28;20033;-55
2021/10/15 00:22:30;;;;;;;11.70;8.95;;;9.90;68.90;;;;;;4995784;28;20033;-53
2021/10/15 00:24:56;;;;;;;14.13;9.18;;;9.90;69.10;;;;;;4978338;28;20030;-53
2021/10/15 00:27:22;;;;;;;12.27;8.73;;;9.90;69.20;;;;;;4995716;28;20085;-53
2021/10/15 00:29:47;;;;;;;12.38;8.95;;;9.80;69.10;;;;;;4995908;28;20023;-51
2021/10/15 00:32:13;;;;;;;11.07;8.50;;;9.80;69.00;;;;;;4995644;28;20022;-51
2021/10/15 00:34:39;;;;;;;11.80;8.68;;;9.80;69.10;;;;;;4995683;28;20537;-51
2021/10/15 00:37:05;;;;;;;12.40;8.77;;;9.80;69.00;;;;;;4995758;28;20109;-51
2021/10/15 00:39:31;;;;;;;10.77;8.20;;;9.80;69.10;;;;;;4994839;28;20045;-51
2021/10/15 00:41:57;;;;;;;10.43;8.05;;;9.80;69.30;;;;;;4995377;28;20030;-54
2021/10/15 00:44:22;;;;;;;12.98;8.80;;;9.80;69.30;;;;;;4995504;28;20041;-51
2021/10/15 00:46:48;;;;;;;11.38;7.78;;;9.70;69.40;;;;;;4995365;28;20061;-52
2021/10/15 00:49:15;;;;;;;11.43;8.35;;;9.70;69.40;;;;;;4987770;28;20474;-52
2021/10/15 00:51:43;;;;;;;10.85;7.95;;;9.70;69.50;;;;;;4993800;28;20113;-52
2021/10/15 00:54:12;;;;;;;12.30;8.70;;;9.70;69.60;;;;;;4995330;28;20077;-51
2021/10/15 00:56:38;;;;;;;10.93;8.25;;;9.70;69.60;;;;;;4995392;28;20463;-54
2021/10/15 00:59:03;;;;;;;12.45;8.43;;;9.60;69.50;;;;;;4994884;28;20058;-53
2021/10/15 01:01:30;;;;;;;10.18;6.78;;;9.60;69.50;;;;;;4995282;28;20100;-53
2021/10/15 01:04:01;;;;;;;12.13;7.68;;;9.60;69.50;;;;;;4994988;28;20057;-52
2021/10/15 01:06:28;;;;;;;12.20;8.90;;;9.60;69.60;;;;;;4995079;28;20386;-53
2021/10/15 01:08:55;;;;;;;9.15;7.22;;;9.60;69.70;;;;;;4990426;28;20034;-55
2021/10/15 01:11:21;;;;;;;10.18;8.10;;;9.60;69.60;;;;;;4994741;28;20474;-52
2021/10/15 01:13:48;;;;;;;10.48;7.65;;;9.60;69.70;;;;;;4994828;28;20038;-52
2021/10/15 01:16:14;;;;;;;11.02;8.15;;;9.50;69.70;;;;;;4994911;28;20027;-51
2021/10/15 01:18:42;;;;;;;9.73;7.07;;;9.60;69.80;;;;;;4994960;28;20031;-52
2021/10/15 01:21:09;;;;;;;13.57;7.63;;;9.50;69.70;;;;;;4994981;28;20096;-51
2021/10/15 01:23:36;;;;;;;11.18;7.90;;;9.50;69.80;;;;;;4994774;28;20423;-51
2021/10/15 01:26:02;;;;;;;11.75;7.95;;;9.50;69.80;;;;;;4991781;28;20104;-51
2021/10/15 01:28:30;;;;;;;11.15;7.80;;;9.50;69.90;;;;;;4994899;28;20027;-51
2021/10/15 01:30:56;;;;;;;11.55;8.20;;;9.50;70.00;;;;;;4994739;28;20023;-51
2021/10/15 01:33:23;;;;;;;10.75;8.55;;;9.40;70.00;;;;;;4994445;28;20025;-51
2021/10/15 01:35:49;;;;;;;10.43;7.40;;;9.40;70.10;;;;;;4994315;28;20110;-52
2021/10/15 01:38:15;;;;;;;11.23;8.60;;;9.40;70.20;;;;;;4994094;28;20450;-53
2021/10/15 01:40:41;;;;;;;10.85;7.90;;;9.40;70.10;;;;;;4993545;28;20058;-51
2021/10/15 01:43:07;;;;;;;10.80;8.05;;;9.40;70.20;;;;;;4994247;28;20038;-51
2021/10/15 01:45:34;;;;;;;11.27;8.63;;;9.40;70.90;;;;;;4994086;28;20046;-52
2021/10/15 01:48:01;;;;;;;11.73;8.30;;;9.40;70.30;;;;;;4994468;28;20487;-54
2021/10/15 01:50:28;;;;;;;11.02;7.85;;;9.40;70.40;;;;;;4994027;28;20030;-51
2021/10/15 01:52:54;;;;;;;11.10;8.35;;;9.30;70.40;;;;;;4994385;28;20069;-51
2021/10/15 01:55:21;;;;;;;11.75;8.10;;;9.40;70.40;;;;;;4994335;28;20475;-54
2021/10/15 01:57:47;;;;;;;11.93;8.40;;;9.30;70.40;;;;;;4990060;28;20051;-55
2021/10/15 02:00:15;;;;;;;10.68;8.50;;;9.30;70.50;;;;;;4994045;28;20027;-51
2021/10/15 02:02:42;;;;;;;11.18;8.20;;;9.30;70.40;;;;;;4993661;28;20041;-51
2021/10/15 02:05:09;;;;;;;10.48;7.88;;;9.30;70.50;;;;;;4993904;28;20386;-51
2021/10/15 02:07:35;;;;;;;11.80;8.55;;;9.30;70.60;;;;;;4993832;28;20030;-51
2021/10/15 02:10:01;;;;;;;12.90;8.40;;;9.20;70.30;;;;;;4993563;28;20096;-51
2021/10/15 02:12:27;;;;;;;10.02;7.72;;;9.20;70.60;;;;;;4993844;28;20536;-51
2021/10/15 02:14:52;;;;;;;12.30;8.70;;;9.20;70.70;;;;;;4993782;28;20030;-51
2021/10/15 02:17:18;;;;;;;13.57;9.80;;;9.20;70.50;;;;;;4993817;28;20147;-51
2021/10/15 02:19:44;;;;;;;12.45;8.32;;;9.20;70.60;;;;;;4994037;28;20050;-51
2021/10/15 02:22:09;;;;;;;12.52;8.80;;;9.10;70.70;;;;;;4993788;28;20034;-52
2021/10/15 02:24:36;;;;;;;13.00;9.18;;;9.20;70.50;;;;;;4994000;28;20063;-51
2021/10/15 02:27:02;;;;;;;11.85;8.25;;;9.10;70.40;;;;;;4993755;28;20106;-51
2021/10/15 02:29:27;;;;;;;11.05;8.43;;;9.10;70.40;;;;;;4993609;28;20101;-51
2021/10/15 02:31:53;;;;;;;12.35;8.18;;;9.00;70.60;;;;;;4993651;28;20038;-54
2021/10/15 02:34:19;;;;;;;10.50;8.10;;;9.00;70.60;;;;;;4993769;28;20504;-51
2021/10/15 02:36:45;;;;;;;12.60;8.30;;;9.00;70.60;;;;;;4993474;28;20018;-51
2021/10/15 02:39:12;;;;;;;12.00;8.43;;;8.90;70.90;;;;;;4993325;28;20046;-53
2021/10/15 02:41:39;;;;;;;11.38;8.35;;;8.90;70.90;;;;;;4975993;28;20129;-51
2021/10/15 02:44:06;;;;;;;12.68;8.80;;;8.90;71.00;;;;;;4993526;28;20346;-51
2021/10/15 02:46:32;;;;;;;11.10;8.40;;;8.90;71.10;;;;;;4993519;28;20035;-52
2021/10/15 02:48:57;;;;;;;13.23;8.98;;;8.90;71.10;;;;;;4993496;28;20033;-51
2021/10/15 02:51:23;;;;;;;10.75;8.30;;;8.90;71.10;;;;;;4993407;28;20386;-51
2021/10/15 02:53:49;;;;;;;10.98;8.57;;;8.90;71.30;;;;;;4993454;28;20034;-51
2021/10/15 02:56:14;;;;;;;11.40;8.60;;;8.90;71.40;;;;;;4993410;28;20076;-51
2021/10/15 02:58:40;;;;;;;11.40;8.73;;;8.90;71.40;;;;;;4993186;28;20022;-51
2021/10/15 03:01:06;;;;;;;13.45;8.98;;;8.90;71.30;;;;;;4993096;28;20030;-51
2021/10/15 03:03:31;;;;;;;12.90;8.90;;;8.90;71.40;;;;;;4993399;28;20030;-53
2021/10/15 03:05:57;;;;;;;13.35;9.50;;;9.00;71.40;;;;;;4993397;28;20022;-52
2021/10/15 03:08:23;;;;;;;11.70;8.75;;;8.90;71.40;;;;;;4991168;28;20049;-51
2021/10/15 03:10:48;;;;;;;12.57;9.18;;;9.00;71.50;;;;;;4973872;28;20031;-54
2021/10/15 03:13:14;;;;;;;12.25;9.00;;;9.00;71.50;;;;;;4974224;28;20022;-52
2021/10/15 03:15:40;;;;;;;12.38;9.02;;;9.00;71.60;;;;;;4975935;28;20109;-54
2021/10/15 03:18:05;;;;;;;12.23;8.70;;;9.00;71.60;;;;;;4977611;28;20089;-54
2021/10/15 03:20:31;;;;;;;11.40;8.50;;;9.00;71.40;;;;;;4977620;28;20031;-51
2021/10/15 03:22:57;;;;;;;12.07;9.20;;;9.00;71.50;;;;;;4977514;28;20023;-51
2021/10/15 03:25:23;;;;;;;13.25;9.88;;;9.00;71.40;;;;;;4976561;28;20026;-51
2021/10/15 03:27:48;;;;;;;13.15;9.48;;;8.90;71.50;;;;;;4996303;28;20030;-51
2021/10/15 03:30:14;;;;;;;11.82;9.40;;;8.90;71.40;;;;;;4996999;28;20113;-51
2021/10/15 03:32:40;;;;;;;14.85;10.68;;;8.90;71.50;;;;;;4996497;28;20556;-51
2021/10/15 03:35:06;;;;;;;12.77;9.27;;;8.90;71.40;;;;;;4996590;28;20036;-51
2021/10/15 03:37:32;;;;;;;12.55;9.27;;;8.90;71.50;;;;;;4996821;28;20478;-50
2021/10/15 03:39:57;;;;;;;14.00;10.10;;;8.80;71.40;;;;;;4996463;28;20042;-51
2021/10/15 03:42:23;;;;;;;12.77;9.43;;;8.80;71.40;;;;;;4996573;28;20057;-51
2021/10/15 03:44:49;;;;;;;12.95;9.48;;;8.80;71.60;;;;;;4996760;28;20022;-53
2021/10/15 03:47:14;;;;;;;13.02;9.50;;;8.80;71.70;;;;;;4996503;28;20356;-51
2021/10/15 03:49:40;;;;;;;15.23;9.25;;;8.80;71.80;;;;;;4978945;28;20426;-52
2021/10/15 03:52:06;;;;;;;11.43;8.52;;;8.80;71.70;;;;;;4996345;28;20026;-51
2021/10/15 03:54:32;;;;;;;10.82;9.02;;;8.80;71.90;;;;;;4996336;28;20027;-51
2021/10/15 03:56:57;;;;;;;12.50;8.85;;;8.80;71.80;;;;;;4995625;28;20040;-52
2021/10/15 03:59:23;;;;;;;12.95;8.57;;;8.80;71.90;;;;;;4996179;28;20029;-51
2021/10/15 04:01:49;;;;;;;10.95;8.50;;;8.80;71.90;;;;;;4995974;28;20431;-50
2021/10/15 04:04:14;;;;;;;12.15;9.07;;;8.80;71.90;;;;;;4996222;28;20030;-50
2021/10/15 04:06:40;;;;;;;12.10;8.93;;;8.80;72.00;;;;;;4996128;28;20545;-51
2021/10/15 04:09:06;;;;;;;11.23;9.07;;;8.80;72.00;;;;;;4996314;28;20069;-50
2021/10/15 04:11:32;;;;;;;11.38;8.27;;;8.80;72.10;;;;;;4996010;28;20378;-51
2021/10/15 04:14:01;;;;;;;11.30;8.60;;;8.80;72.00;;;;;;4996000;28;20070;-50
2021/10/15 04:16:27;;;;;;;12.60;8.50;;;8.70;72.10;;;;;;4996155;28;20026;-50
2021/10/15 04:18:52;;;;;;;11.75;8.60;;;8.70;72.00;;;;;;4996251;28;20088;-51
2021/10/15 04:21:18;;;;;;;10.90;8.75;;;8.70;72.10;;;;;;4995880;28;20030;-51
2021/10/15 04:23:44;;;;;;;12.15;8.73;;;8.70;72.00;;;;;;4995855;28;20037;-54
2021/10/15 04:26:10;;;;;;;11.50;9.10;;;8.70;72.00;;;;;;4995602;28;20026;-53
2021/10/15 04:28:35;;;;;;;11.57;8.88;;;8.70;71.90;;;;;;4995738;28;20112;-51
2021/10/15 04:31:02;;;;;;;12.43;9.13;;;8.70;72.10;;;;;;4995317;28;20077;-51
2021/10/15 04:33:27;;;;;;;11.77;9.32;;;8.70;72.10;;;;;;4995745;28;20031;-51
2021/10/15 04:35:53;;;;;;;12.85;9.27;;;8.80;72.10;;;;;;4995703;28;20018;-52
2021/10/15 04:38:19;;;;;;;11.88;8.77;;;8.70;72.00;;;;;;4995353;28;20150;-51
2021/10/15 04:40:44;;;;;;;11.30;8.75;;;8.70;72.10;;;;;;4995561;28;20038;-51
2021/10/15 04:43:11;;;;;;;12.43;8.50;;;8.80;72.10;;;;;;4995676;28;20030;-54
2021/10/15 04:45:36;;;;;;;12.25;8.52;;;8.80;72.10;;;;;;4995300;28;20569;-52
2021/10/15 04:48:03;;;;;;;13.70;9.68;;;8.80;72.00;;;;;;4995169;28;20113;-50
2021/10/15 04:50:29;;;;;;;11.45;8.98;;;8.80;71.90;;;;;;4994993;28;20364;-50
2021/10/15 04:52:54;;;;;;;12.07;9.00;;;8.80;71.90;;;;;;4995410;28;20026;-50
2021/10/15 04:55:20;;;;;;;11.65;9.10;;;8.80;71.90;;;;;;4995263;28;20026;-51
2021/10/15 04:57:46;;;;;;;11.07;8.85;;;8.80;71.80;;;;;;4993561;28;20401;-51
2021/10/15 05:00:12;;;;;;;11.90;9.40;;;8.80;71.90;;;;;;4981402;28;20027;-51
2021/10/15 05:02:41;;;;;;;14.88;10.32;;;8.90;71.90;;;;;;4986826;28;20102;-52
2021/10/15 05:05:08;;;;;;;13.85;10.05;;;8.90;71.90;;;;;;4976186;28;20057;-51
2021/10/15 05:07:35;;;;;;;14.10;10.60;;;8.90;71.90;;;;;;4987257;28;20018;-54
2021/10/15 05:10:02;;;;;;;14.25;11.25;;;8.90;71.80;;;;;;4985769;28;20506;-52
2021/10/15 05:12:28;;;;;;;14.38;12.10;;;8.90;71.80;;;;;;4995108;28;20382;-52
2021/10/15 05:14:54;;;;;;;16.63;12.50;;;9.00;72.00;;;;;;4994385;28;20026;-51
2021/10/15 05:17:20;;;;;;;15.70;12.48;;;9.00;72.00;;;;;;4994754;28;20041;-53
2021/10/15 05:19:46;;;;;;;13.80;11.45;;;9.00;72.00;;;;;;4995166;28;20049;-50
2021/10/15 05:22:13;;;;;;;16.80;12.85;;;9.10;72.10;;;;;;4994473;28;20023;-51
2021/10/15 05:24:39;;;;;;;15.35;12.65;;;9.10;72.00;;;;;;4994886;28;20116;-54
2021/10/15 05:27:05;;;;;;;14.48;11.68;;;9.20;72.00;;;;;;4994576;28;20026;-51
2021/10/15 05:29:31;;;;;;;15.82;12.93;;;9.20;71.90;;;;;;4991286;28;20036;-53
2021/10/15 05:31:57;;;;;;;17.30;13.30;;;9.20;71.90;;;;;;4990103;28;20073;-51
2021/10/15 05:34:23;;;;;;;21.13;15.60;;;9.30;72.00;;;;;;4983711;28;20411;-51
2021/10/15 05:36:48;;;;;;;19.88;16.08;;;9.30;72.00;;;;;;4989332;28;20030;-52
2021/10/15 05:39:15;;;;;;;19.48;15.50;;;9.30;71.80;;;;;;4990796;28;20046;-51
2021/10/15 05:41:40;;;;;;;20.83;15.45;;;9.40;71.70;;;;;;4992114;28;20034;-53
2021/10/15 05:44:06;;;;;;;20.00;15.32;;;9.40;71.70;;;;;;4989296;28;20030;-51
2021/10/15 05:46:32;;;;;;;20.55;16.20;;;9.40;71.70;;;;;;4985103;28;20031;-51
2021/10/15 05:48:58;;;;;;;21.60;16.75;;;9.40;71.80;;;;;;4984900;28;20475;-51
2021/10/15 05:51:25;;;;;;;21.40;15.07;;;9.50;71.80;;;;;;4990298;28;20028;-51
2021/10/15 05:53:54;;;;;;;20.25;15.18;;;9.50;71.90;;;;;;4978687;28;20038;-51
2021/10/15 05:56:45;;;;;;;20.05;13.60;;;9.60;72.00;;;;;;4984272;28;20027;-51
2021/10/15 05:59:05;;;;;;;22.63;15.77;;;9.70;71.90;;;;;;4976917;28;20043;-51
2021/10/15 06:01:34;;;;;;;19.40;14.43;;;9.70;71.70;;;;;;4982731;28;20022;-51
2021/10/15 06:14:47;;;;;;;19.02;14.23;;;9.90;71.10;;;;;;4988434;28;20037;-52
2021/10/15 06:17:16;;;;;;;19.27;14.70;;;9.90;71.10;;;;;;4980112;28;20030;-51
2021/10/15 06:22:18;;;;;;;20.05;15.10;;;10.00;71.20;;;;;;4979698;28;20085;-52
2021/10/15 06:24:43;;;;;;;19.75;14.77;;;10.00;71.20;;;;;;4981964;28;20030;-52
2021/10/15 06:27:09;;;;;;;17.67;14.30;;;10.10;71.40;;;;;;4992708;28;20033;-51
2021/10/15 06:29:35;;;;;;;20.27;15.07;;;10.10;71.30;;;;;;4982567;28;20064;-51
2021/10/15 06:32:00;;;;;;;18.92;15.55;;;10.30;71.40;;;;;;4991472;28;21002;-53
2021/10/15 06:34:26;;;;;;;16.75;12.70;;;10.30;71.30;;;;;;4985749;28;20027;-51
2021/10/15 06:36:52;;;;;;;18.88;12.77;;;10.40;71.60;;;;;;4991363;28;20101;-54
2021/10/15 06:39:17;;;;;;;15.30;13.07;;;10.50;71.70;;;;;;4988944;28;20049;-52
2021/10/15 06:41:43;;;;;;;17.92;12.70;;;10.60;71.70;;;;;;4982399;28;20084;-53
2021/10/15 06:44:09;;;;;;;16.10;11.18;;;10.70;71.60;;;;;;4991893;28;20037;-53
2021/10/15 06:46:35;;;;;;;14.70;10.63;;;10.80;71.70;;;;;;4988349;28;20504;-51
2021/10/15 06:49:00;;;;;;;14.07;10.55;;;10.90;71.50;;;;;;4988310;28;20034;-51
2021/10/15 06:51:26;;;;;;;13.38;10.32;;;11.00;71.50;;;;;;4990884;28;20379;-53
2021/10/15 06:53:52;;;;;;;13.00;9.40;;;11.10;71.50;;;;;;4984118;28;20023;-54
2021/10/15 06:56:18;;;;;;;15.27;10.63;;;11.10;71.10;;;;;;4987319;28;20046;-51
2021/10/15 06:58:43;;;;;;;12.88;10.00;;;11.20;71.10;;;;;;4988250;28;20395;-51
2021/10/15 07:01:09;;;;;;;13.82;10.52;;;11.30;71.00;;;;;;4967852;28;20492;-54
2021/10/15 07:03:35;;;;;;;15.25;11.15;;;11.30;70.90;;;;;;4990063;28;20031;-52
2021/10/15 07:06:00;;;;;;;17.73;11.68;;;11.40;71.60;;;;;;4990297;28;20394;-54
2021/10/15 07:08:27;;;;;;;15.57;10.85;;;11.40;70.90;;;;;;4987845;28;20038;-52
2021/10/15 07:10:52;;;;;;;14.70;10.75;;;11.50;70.80;;;;;;4982913;28;20043;-52
2021/10/15 07:13:18;;;;;;;16.95;11.45;;;11.50;70.60;;;;;;4984581;28;20027;-52
2021/10/15 07:15:46;;;;;;;14.48;11.18;;;11.60;70.60;;;;;;4990268;28;20053;-54
2021/10/15 07:18:12;;;;;;;11.60;9.38;;;11.60;70.50;;;;;;4981037;28;20513;-52
2021/10/15 07:20:39;;;;;;;13.13;9.48;;;11.60;70.60;;;;;;4983130;28;20030;-52
2021/10/15 07:23:05;;;;;;;13.38;9.43;;;11.60;70.50;;;;;;4982213;28;20408;-52
2021/10/15 07:25:31;;;;;;;13.20;8.63;;;11.70;70.60;;;;;;4981903;28;20410;-52
2021/10/15 07:27:56;;;;;;;14.40;9.85;;;11.70;70.60;;;;;;4985309;28;20038;-55
2021/10/15 07:30:22;;;;;;;14.43;9.23;;;11.80;70.40;;;;;;4988307;28;20041;-55
2021/10/15 07:32:52;;;;;;;13.07;8.98;;;11.80;70.30;;;;;;4991691;28;20042;-54
2021/10/15 07:35:18;;;;;;;13.90;9.35;;;11.90;70.30;;;;;;4984655;28;20396;-54
2021/10/15 07:37:44;;;;;;;11.20;8.00;;;11.90;70.10;;;;;;4984228;28;20541;-52
2021/10/15 07:40:10;;;;;;;10.32;7.47;;;12.00;70.10;;;;;;4984427;28;20085;-51
2021/10/15 07:42:36;;;;;;;10.52;8.40;;;12.00;69.90;;;;;;4983198;28;20046;-53
2021/10/15 07:45:04;;;;;;;11.27;8.38;;;12.10;69.80;;;;;;4981881;28;20022;-51
2021/10/15 07:47:29;;;;;;;11.48;8.43;;;12.10;69.40;;;;;;4987841;28;20034;-52
2021/10/15 07:49:55;;;;;;;10.38;7.47;;;12.10;69.10;;;;;;4986009;28;20041;-53
2021/10/15 07:52:22;;;;;;;11.35;8.48;;;12.20;69.20;;;;;;4985563;28;20044;-54
2021/10/15 07:54:48;;;;;;;12.20;8.00;;;12.20;69.00;;;;;;4977625;28;20027;-51
2021/10/15 07:57:14;;;;;;;9.23;6.97;;;12.20;69.00;;;;;;4987865;28;20029;-54
2021/10/15 07:59:40;;;;;;;10.50;8.00;;;12.30;68.80;;;;;;4984963;28;20034;-54
2021/10/15 08:02:07;;;;;;;9.20;7.32;;;12.30;68.60;;;;;;4976445;28;20023;-54
2021/10/15 08:04:32;;;;;;;11.15;7.82;;;12.30;68.50;;;;;;4992075;28;20379;-51
2021/10/15 08:06:58;;;;;;;10.82;7.53;;;12.30;68.30;;;;;;4993317;28;20034;-51
2021/10/15 08:09:24;;;;;;;10.23;7.45;;;12.30;68.30;;;;;;4982973;28;20065;-51
2021/10/15 08:11:51;;;;;;;8.95;7.15;;;12.40;68.10;;;;;;4980353;28;20577;-51
2021/10/15 08:14:18;;;;;;;9.68;7.00;;;12.40;67.90;;;;;;4988885;28;20031;-51
2021/10/15 08:16:44;;;;;;;10.48;7.18;;;12.40;67.70;;;;;;4986267;28;20073;-54
2021/10/15 08:19:10;;;;;;;8.80;6.63;;;12.40;67.50;;;;;;4982404;28;20479;-51
2021/10/15 08:21:37;;;;;;;9.68;7.07;;;12.50;67.50;;;;;;4985747;28;20030;-51
2021/10/15 08:24:02;;;;;;;11.15;7.68;;;12.50;67.50;;;;;;4981301;28;20053;-51
2021/10/15 08:26:28;;;;;;;9.60;7.40;;;12.50;67.30;;;;;;4984134;28;20058;-51
2021/10/15 08:28:59;;;;;;;8.30;6.15;;;12.60;67.10;;;;;;4983853;28;20027;-51
2021/10/15 08:31:25;;;;;;;9.25;7.60;;;12.60;66.90;;;;;;4982478;28;20038;-53
2021/10/15 08:33:51;;;;;;;9.57;7.60;;;12.60;66.90;;;;;;4980104;28;20117;-51
2021/10/15 08:36:17;;;;;;;9.93;6.88;;;12.60;66.80;;;;;;4984078;28;20101;-51
2021/10/15 08:38:43;;;;;;;10.48;6.55;;;12.70;66.70;;;;;;4987168;28;20058;-50
2021/10/15 08:41:11;;;;;;;12.05;7.47;;;12.70;66.50;;;;;;4990233;28;20033;-51
2021/10/15 08:43:39;;;;;;;9.57;7.30;;;12.70;66.30;;;;;;4988799;28;20030;-51
2021/10/15 08:46:06;;;;;;;9.38;6.10;;;12.70;66.30;;;;;;4984649;28;20521;-54
2021/10/15 08:48:37;;;;;;;8.75;6.05;;;12.70;66.30;;;;;;4987667;28;20034;-54
2021/10/15 08:51:03;;;;;;;8.90;7.00;;;12.70;66.40;;;;;;4988310;28;20042;-51
2021/10/15 08:53:29;;;;;;;8.00;5.38;;;12.80;66.10;;;;;;4981308;28;20034;-52
2021/10/15 08:55:54;;;;;;;6.20;5.15;;;12.80;65.80;;;;;;4985066;28;20038;-52
2021/10/15 08:58:20;;;;;;;9.13;6.18;;;12.80;65.70;;;;;;4985649;28;20030;-55
2021/10/15 09:00:57;;;;;;;7.82;5.70;;;12.90;65.60;;;;;;4985329;28;20065;-52
2021/10/15 09:03:23;;;;;;;7.15;5.50;;;12.90;65.40;;;;;;4989209;28;20030;-52
2021/10/15 09:05:58;;;;;;;8.50;5.95;;;12.90;65.00;;;;;;4991379;28;20038;-53
2021/10/15 09:08:26;;;;;;;7.38;5.72;;;12.90;64.50;;;;;;4989545;28;20509;-51
2021/10/15 09:10:52;;;;;;;6.45;5.00;;;13.00;64.30;;;;;;4989188;28;20572;-51
2021/10/15 09:13:20;;;;;;;7.85;5.85;;;13.00;64.20;;;;;;4988121;28;20038;-52
2021/10/15 09:15:47;;;;;;;6.80;5.70;;;13.10;64.10;;;;;;4990667;28;20086;-51
2021/10/15 09:18:17;;;;;;;6.13;4.45;;;13.10;63.90;;;;;;4980703;28;20027;-51
2021/10/15 09:20:45;;;;;;;6.65;4.97;;;13.10;63.50;;;;;;4981038;28;20119;-51
2021/10/15 09:23:12;;;;;;;5.93;4.68;;;13.10;63.40;;;;;;4980295;28;20033;-52
2021/10/15 09:25:44;;;;;;;6.13;4.70;;;13.10;63.00;;;;;;4973406;28;20449;-55
2021/10/15 09:28:13;;;;;;;6.68;4.57;;;13.20;62.80;;;;;;4986811;28;20022;-50
2021/10/15 09:30:41;;;;;;;6.00;4.53;;;13.10;62.70;;;;;;4991707;28;20583;-51
2021/10/15 09:33:08;;;;;;;5.93;4.20;;;13.20;62.30;;;;;;4980814;28;20018;-52
2021/10/15 09:35:33;;;;;;;4.68;3.85;;;13.20;62.20;;;;;;4991947;28;20118;-52
2021/10/15 09:38:08;;;;;;;6.05;4.32;;;13.20;62.10;;;;;;4985635;28;20118;-51
2021/10/15 09:40:48;;;;;;;4.68;3.53;;;13.20;61.90;;;;;;4985666;28;20081;-51
2021/10/15 09:43:14;;;;;;;5.82;3.88;;;13.30;61.50;;;;;;4983474;28;20057;-52
2021/10/15 09:45:44;;;;;;;5.10;3.63;;;13.30;61.20;;;;;;4982357;28;20034;-53
2021/10/15 09:48:20;;;;;;;4.22;3.53;;;13.30;61.10;;;;;;4980735;28;20117;-51
2021/10/15 09:50:47;;;;;;;4.15;3.35;;;13.30;60.80;;;;;;4976847;28;20026;-53
2021/10/15 09:53:13;;;;;;;4.85;3.78;;;13.30;60.80;;;;;;4987500;28;20411;-51
2021/10/15 09:55:43;;;;;;;4.07;3.38;;;13.30;60.60;;;;;;4986623;28;20023;-51
2021/10/15 09:58:10;;;;;;;4.57;3.45;;;13.30;60.50;;;;;;4984872;28;20038;-51
2021/10/15 10:00:36;;;;;;;4.65;3.70;;;13.30;60.40;;;;;;4986772;28;20042;-51
2021/10/15 10:03:01;;;;;;;6.20;4.47;;;13.40;60.30;;;;;;4987265;28;20034;-52
2021/10/15 10:05:28;;;;;;;5.68;4.32;;;13.40;60.40;;;;;;4984884;28;20951;-51
2021/10/15 10:07:55;;;;;;;6.38;4.30;;;13.40;60.40;;;;;;4994227;28;20562;-53
2021/10/15 10:10:26;;;;;;;5.25;3.95;;;13.40;60.10;;;;;;4989160;28;20038;-52
2021/10/15 10:12:52;;;;;;;4.05;3.33;;;13.40;59.90;;;;;;4982518;28;20052;-51
2021/10/15 10:15:21;;;;;;;4.82;3.70;;;13.40;59.80;;;;;;4990226;28;20340;-51
2021/10/15 10:18:17;;;;;;;3.78;3.13;;;13.40;59.40;;;;;;4992974;28;20070;-51
2021/10/15 10:20:54;;;;;;;4.35;2.78;;;13.50;59.20;;;;;;4981630;28;20044;-54
2021/10/15 10:23:27;;;;;;;4.18;3.30;;;13.50;59.00;;;;;;4988660;28;20030;-51
2021/10/15 10:26:01;;;;;;;4.45;3.53;;;13.50;58.90;;;;;;4992854;28;20026;-51
2021/10/15 10:28:28;;;;;;;3.20;2.90;;;13.50;58.90;;;;;;4985698;28;20031;-52
2021/10/15 10:30:56;;;;;;;3.63;3.22;;;13.50;58.80;;;;;;4986733;28;20065;-52
2021/10/15 10:33:23;;;;;;;2.78;2.53;;;13.50;58.70;;;;;;4992123;28;20027;-51
2021/10/15 10:35:50;;;;;;;4.47;3.05;;;13.60;58.50;;;;;;4985308;28;20038;-51
2021/10/15 10:38:18;;;;;;;3.20;2.53;;;13.60;58.50;;;;;;4991717;28;20022;-52
2021/10/15 10:40:59;;;;;;;3.28;2.63;;;13.60;58.40;;;;;;4985189;28;20062;-54
2021/10/15 10:43:26;;;;;;;3.05;2.67;;;13.60;57.80;;;;;;4988312;28;20029;-54
2021/10/15 10:46:25;;;;;;;3.78;2.95;;;13.50;57.90;;;;;;4983537;28;20046;-51
2021/10/15 10:48:51;;;;;;;2.67;2.47;;;13.60;57.60;;;;;;4961759;28;20042;-51
2021/10/15 10:51:19;;;;;;;2.92;2.60;;;13.60;57.70;;;;;;4983839;28;20030;-51
2021/10/15 10:53:57;;;;;;;4.70;3.15;;;13.60;57.40;;;;;;4989821;28;20117;-52
2021/10/15 10:56:42;;;;;;;5.57;4.57;;;13.60;57.20;;;;;;4984433;28;20033;-54
2021/10/15 10:59:25;;;;;;;8.15;6.07;;;13.60;57.80;;;;;;4983835;28;20032;-51
2021/10/15 11:01:54;;;;;;;8.40;6.57;;;13.60;59.30;;;;;;4979109;28;20030;-51
2021/10/15 11:04:34;;;;;;;8.25;6.07;;;13.50;60.40;;;;;;4977875;28;20654;-51
2021/10/15 11:07:07;;;;;;;7.18;5.97;;;13.50;61.10;;;;;;4980951;28;20486;-52
2021/10/15 11:09:48;;;;;;;9.93;6.53;;;13.50;61.60;;;;;;4986928;28;20061;-51
2021/10/15 11:12:14;;;;;;;8.40;6.55;;;13.40;62.20;;;;;;4985511;28;20057;-51
2021/10/15 11:14:58;;;;;;;9.02;6.43;;;13.30;62.20;;;;;;4982174;28;20509;-51
2021/10/15 11:17:48;;;;;;;9.75;7.60;;;13.30;62.50;;;;;;4982512;28;20038;-56
2021/10/15 11:20:32;;;;;;;9.13;6.27;;;13.30;62.80;;;;;;4987079;28;20026;-51
2021/10/15 11:23:06;;;;;;;8.25;6.63;;;13.30;63.00;;;;;;4979172;28;20280;-51
2021/10/15 11:25:45;;;;;;;8.23;5.68;;;13.20;62.90;;;;;;4980765;28;20499;-51
2021/10/15 11:28:18;;;;;;;10.25;6.57;;;13.20;63.20;;;;;;4982180;28;20072;-51
2021/10/15 11:30:47;;;;;;;8.40;6.30;;;13.20;63.60;;;;;;4985327;28;20061;-51
2021/10/15 11:33:16;;;;;;;9.23;7.05;;;13.20;64.10;;;;;;4985681;28;20034;-53
2021/10/15 11:35:44;;;;;;;9.40;6.80;;;13.20;64.70;;;;;;4986939;28;20081;-52
2021/10/15 11:38:19;;;;;;;9.13;6.93;;;13.10;65.00;;;;;;4990566;28;20026;-56
2021/10/15 11:40:50;;;;;;;7.65;5.32;;;13.10;65.00;;;;;;4982630;28;20073;-52
2021/10/15 11:43:24;;;;;;;7.85;5.70;;;13.10;64.90;;;;;;4991132;28;20027;-51
2021/10/15 11:46:25;;;;;;;8.30;6.03;;;13.00;64.60;;;;;;4987974;28;20099;-54
2021/10/15 11:48:52;;;;;;;6.03;5.00;;;13.00;64.80;;;;;;4990560;28;20088;-51
2021/10/15 11:51:20;;;;;;;6.65;5.10;;;13.00;64.80;;;;;;4987643;28;20076;-51
2021/10/15 11:53:49;;;;;;;7.72;5.05;;;13.00;65.10;;;;;;4984282;28;20625;-51
2021/10/15 11:56:17;;;;;;;9.00;6.00;;;12.90;65.40;;;;;;4993830;28;20999;-51
2021/10/15 11:58:50;;;;;;;9.82;6.20;;;13.00;65.90;;;;;;4991722;28;20031;-51
2021/10/15 12:01:21;;;;;;;6.78;5.57;;;12.90;66.10;;;;;;4991890;28;20411;-52
2021/10/15 12:03:52;;;;;;;8.95;6.22;;;12.90;66.40;;;;;;4987615;28;20073;-53
2021/10/15 12:06:30;;;;;;;;;;;12.90;66.50;;;;;;4982614;28;20046;-52
2021/10/15 12:08:57;;;;;;;8.32;5.88;;;12.80;66.80;;;;;;4982747;28;20346;-52
2021/10/15 12:11:41;;;;;;;9.35;5.63;;;12.80;66.70;;;;;;4984034;28;20034;-52
2021/10/15 12:14:26;;;;;;;9.57;6.07;;;12.80;66.30;;;;;;4989545;28;20022;-52
2021/10/15 12:17:02;;;;;;;8.18;6.57;;;12.80;66.70;;;;;;4985967;28;20037;-52
2021/10/15 12:19:37;;;;;;;8.80;6.40;;;12.70;67.00;;;;;;4982527;28;20031;-52
2021/10/15 12:22:11;;;;;;;8.30;6.28;;;12.70;67.10;;;;;;4982171;28;20063;-51
2021/10/15 12:24:57;;;;;;;9.15;5.93;;;12.60;67.50;;;;;;4989636;28;20038;-51
2021/10/15 12:27:35;;;;;;;7.78;5.57;;;12.60;67.70;;;;;;4987508;28;20025;-52
2021/10/15 12:30:14;;;;;;;7.63;5.72;;;12.60;67.40;;;;;;4987742;28;20039;-51
2021/10/15 12:32:41;;;;;;;7.32;5.70;;;12.60;67.50;;;;;;4991084;28;20033;-53
2021/10/15 12:35:24;;;;;;;8.35;5.78;;;12.50;67.60;;;;;;4984278;28;20044;-52
2021/10/15 12:37:50;;;;;;;7.00;5.72;;;12.50;67.50;;;;;;4988947;28;20491;-51
2021/10/15 12:40:26;;;;;;;7.43;5.95;;;12.50;67.50;;;;;;4989171;28;20049;-53
2021/10/15 12:42:57;;;;;;;9.15;5.72;;;12.50;67.30;;;;;;4989118;28;20347;-51
2021/10/15 12:45:27;;;;;;;6.38;4.80;;;12.50;67.30;;;;;;4980232;28;20030;-51
2021/10/15 12:48:18;;;;;;;8.13;5.45;;;12.40;67.60;;;;;;4987438;28;20049;-51
2021/10/15 12:50:56;;;;;;;7.28;5.10;;;12.40;67.80;;;;;;4987300;28;20097;-55
2021/10/15 12:53:22;;;;;;;6.88;4.78;;;12.40;68.00;;;;;;4989875;28;20065;-52
2021/10/15 12:55:58;;;;;;;6.70;4.70;;;12.40;67.90;;;;;;4988959;28;20064;-53
2021/10/15 12:58:30;;;;;;;8.73;5.63;;;12.50;68.00;;;;;;4986856;28;20041;-52
2021/10/15 13:01:01;;;;;;;7.10;5.28;;;12.40;68.60;;;;;;4981804;28;20101;-52